Time;durP1;ratioP1;P1;durP2;ratioP2;P2;SDS_P1;SDS_P2;PMS_P1;PMS_P2;Temp;Humidity;BMP_temperature;BMP_pressure;BME280_temperature;BME280_humidity;BME280_pressure;Samples;Min_cycle;Max_cycle;Signal;HPM_P1;HPM_P2
2022/06/17 00:01:30;;;;;;;3.42;1.77;;;;;;;22.27;35.04;101253.16;4162941;28;20124;-67
2022/06/17 00:03:34;;;;;;;5.80;1.63;;;;;;;22.17;35.38;101246.31;4149792;28;20053;-65
2022/06/17 00:05:37;;;;;;;4.38;1.42;;;;;;;22.13;35.44;101242.00;4132864;28;20124;-65
2022/06/17 00:07:42;;;;;;;3.53;1.50;;;;;;;22.21;35.52;101250.66;4147206;28;20056;-65
2022/06/17 00:09:45;;;;;;;7.20;1.90;;;;;;;22.17;35.42;101248.97;4149673;28;20124;-65
2022/06/17 00:11:50;;;;;;;6.50;1.60;;;;;;;22.14;35.45;101251.69;4149711;28;20062;-65
2022/06/17 00:13:53;;;;;;;3.38;1.40;;;;;;;22.02;35.77;101262.53;4149630;28;20045;-65
2022/06/17 00:15:56;;;;;;;5.03;1.52;;;;;;;21.99;35.95;101266.13;4148673;28;20069;-65
2022/06/17 00:17:59;;;;;;;5.22;1.80;;;;;;;22.04;36.07;101264.25;4148914;28;20034;-65
2022/06/17 00:20:05;;;;;;;2.55;1.15;;;;;;;22.04;35.90;101271.31;4148086;28;20064;-65
2022/06/17 00:22:09;;;;;;;3.42;1.77;;;;;;;22.08;36.00;101265.94;4148194;28;20081;-65
2022/06/17 00:24:16;;;;;;;4.95;1.35;;;;;;;22.03;36.20;101261.63;4149797;28;20124;-65
2022/06/17 00:26:19;;;;;;;3.28;1.40;;;;;;;21.96;36.17;101267.06;4141595;28;20061;-65
2022/06/17 00:28:25;;;;;;;2.63;1.60;;;;;;;21.89;36.46;101253.94;4130987;28;20035;-65
2022/06/17 00:30:29;;;;;;;5.13;1.70;;;;;;;21.91;36.37;101253.03;4148257;28;20599;-65
2022/06/17 00:32:32;;;;;;;;;;;;;;;21.73;36.71;101248.13;4148201;28;20057;-65
2022/06/17 00:34:35;;;;;;;3.67;1.80;;;;;;;21.79;36.66;101254.16;4148573;28;19971;-65
2022/06/17 00:36:39;;;;;;;6.50;2.00;;;;;;;21.85;36.92;101247.00;4149016;28;20348;-65
2022/06/17 00:38:45;;;;;;;3.75;1.58;;;;;;;21.88;36.76;101246.94;4148599;28;20091;-65
2022/06/17 00:40:48;;;;;;;2.20;1.40;;;;;;;21.88;36.79;101246.94;4148069;28;20416;-65
2022/06/17 00:42:51;;;;;;;1.77;1.20;;;;;;;21.85;36.82;101247.00;4146921;28;20101;-65
2022/06/17 00:45:00;;;;;;;3.17;1.77;;;;;;;21.86;37.29;101244.31;4148443;28;20034;-65
2022/06/17 00:47:14;;;;;;;3.00;0.98;;;;;;;21.86;36.81;101238.13;4148941;28;20115;-65
2022/06/17 00:49:21;;;;;;;1.83;1.17;;;;;;;21.81;36.95;101242.66;4161042;28;20048;-65
2022/06/17 00:51:28;;;;;;;2.25;1.25;;;;;;;21.80;37.47;101241.81;4148803;28;20049;-65
2022/06/17 00:53:35;;;;;;;4.75;1.25;;;;;;;21.76;37.98;101243.63;4131466;28;20038;-66
2022/06/17 00:55:43;;;;;;;4.00;1.30;;;;;;;21.75;38.00;101241.00;4147372;28;20052;-66
2022/06/17 00:57:46;;;;;;;3.95;1.65;;;;;;;21.71;38.60;101244.63;4148008;28;20232;-65
2022/06/17 01:00:11;;;;;;;3.38;1.42;;;;;;;21.68;38.72;101244.69;4145254;28;20097;-65
2022/06/17 01:02:15;;;;;;;2.55;1.38;;;;;;;21.59;38.99;101251.03;4156174;28;20041;-65
2022/06/17 01:04:21;;;;;;;2.20;1.40;;;;;;;21.57;39.69;101244.91;4152593;28;20532;-65
2022/06/17 01:06:30;;;;;;;2.08;1.00;;;;;;;21.52;40.07;101244.97;4148529;28;20038;-65
2022/06/17 01:10:57;;;;;;;3.92;1.25;;;;;;;21.45;40.18;101246.84;4161975;28;20396;-65
2022/06/17 01:13:03;;;;;;;2.10;1.20;;;;;;;21.46;40.04;101255.63;4131776;28;20137;-66
2022/06/17 01:15:15;;;;;;;1.70;1.33;;;;;;;21.42;40.16;101249.53;4147618;28;20559;-66
2022/06/17 01:17:19;;;;;;;2.78;1.50;;;;;;;21.41;39.52;101254.84;4156772;28;20045;-65
2022/06/17 01:19:31;;;;;;;2.30;1.33;;;;;;;21.38;39.72;101247.84;4161028;28;20065;-65
2022/06/17 01:21:52;;;;;;;2.65;1.27;;;;;;;21.34;39.21;101245.28;4147063;28;20045;-65
2022/06/17 01:23:56;;;;;;;3.90;1.25;;;;;;;21.35;38.83;101236.44;4131367;28;20405;-65
2022/06/17 01:25:59;;;;;;;;;;;;;;;21.10;39.61;101247.47;4148099;28;20065;-65
2022/06/17 01:28:06;;;;;;;4.15;1.55;;;;;;;21.21;39.35;101244.63;4147564;28;19976;-65
2022/06/17 01:30:12;;;;;;;5.60;1.90;;;;;;;21.31;39.39;101245.34;4149490;28;20042;-65
2022/06/17 01:32:17;;;;;;;1.92;1.33;;;;;;;21.38;40.14;101242.56;4130486;28;20049;-65
2022/06/17 01:34:21;;;;;;;3.15;1.00;;;;;;;21.38;40.29;101233.75;4156187;28;20080;-65
2022/06/17 01:36:27;;;;;;;4.15;1.73;;;;;;;21.36;39.69;101238.19;4163356;28;20120;-65
2022/06/17 01:38:33;;;;;;;3.67;1.55;;;;;;;21.31;39.78;101240.06;4146924;28;20046;-65
2022/06/17 01:40:38;;;;;;;2.83;1.30;;;;;;;21.30;39.61;101239.16;4148039;28;20042;-65
2022/06/17 01:43:02;;;;;;;3.65;1.50;;;;;;;21.29;40.43;101248.00;4144476;28;20104;-65
2022/06/17 01:45:08;;;;;;;3.35;1.65;;;;;;;21.25;40.92;101247.19;4147692;28;20125;-65
2022/06/17 01:47:16;;;;;;;5.63;1.45;;;;;;;21.24;40.91;101250.72;4129685;28;20150;-65
2022/06/17 01:49:24;;;;;;;3.65;1.55;;;;;;;21.18;41.08;101250.84;4139510;28;20044;-65
2022/06/17 01:51:29;;;;;;;2.83;1.45;;;;;;;21.11;41.07;101251.84;4146143;28;20042;-64
2022/06/17 01:53:35;;;;;;;2.03;1.17;;;;;;;21.08;41.00;101249.25;4163294;28;20470;-65
2022/06/17 01:55:43;;;;;;;2.33;1.48;;;;;;;20.93;41.28;101250.38;4146665;28;20041;-65
2022/06/17 01:57:52;;;;;;;3.63;1.60;;;;;;;20.91;41.32;101242.47;4146809;28;20096;-65
2022/06/17 02:00:02;;;;;;;5.20;1.20;;;;;;;20.95;41.60;101245.06;4147602;28;20129;-65
2022/06/17 02:02:17;;;;;;;5.10;1.60;;;;;;;20.87;41.77;101243.41;4146541;28;20060;-65
2022/06/17 02:04:23;;;;;;;;;;;;;;;20.69;42.57;101241.06;4146744;28;20072;-65
2022/06/17 02:06:32;;;;;;;3.50;1.52;;;;;;;20.77;42.25;101238.31;4145325;28;19965;-65
2022/06/17 02:08:36;;;;;;;6.13;1.58;;;;;;;20.80;42.30;101239.13;4144032;28;20508;-65
2022/06/17 02:10:44;;;;;;;3.88;1.55;;;;;;;20.84;41.52;101235.53;4146610;28;20040;-65
2022/06/17 02:12:47;;;;;;;3.20;1.60;;;;;;;20.87;41.36;101238.13;4146924;28;20042;-65
2022/06/17 02:14:50;;;;;;;8.38;1.90;;;;;;;20.90;41.48;101239.84;4145960;28;20048;-66
2022/06/17 02:17:16;;;;;;;8.32;2.38;;;;;;;20.92;41.27;101238.03;4146706;28;20038;-64
2022/06/17 02:19:33;;;;;;;6.22;2.13;;;;;;;20.87;41.40;101234.63;4146629;28;20080;-65
2022/06/17 02:21:42;;;;;;;6.53;2.63;;;;;;;20.86;41.73;101233.72;4147160;28;20034;-65
2022/06/17 02:23:46;;;;;;;5.57;2.38;;;;;;;20.88;41.48;101236.34;4147138;28;20461;-65
2022/06/17 02:25:53;;;;;;;3.85;2.20;;;;;;;20.85;41.66;101233.75;4149224;28;20042;-67
2022/06/17 02:27:59;;;;;;;3.95;2.00;;;;;;;20.83;41.96;101239.06;4146213;28;20552;-64
2022/06/17 02:30:04;;;;;;;4.55;1.90;;;;;;;20.84;42.14;101234.69;4146436;28;20294;-64
2022/06/17 02:32:10;;;;;;;5.35;2.13;;;;;;;20.77;42.09;101233.03;4145993;28;20038;-64
2022/06/17 02:34:16;;;;;;;5.10;2.30;;;;;;;20.80;42.42;101238.25;4162641;28;20037;-65
2022/06/17 02:36:24;;;;;;;3.63;1.83;;;;;;;20.77;42.47;101225.97;4145357;28;20070;-65
2022/06/17 02:38:33;;;;;;;10.40;2.38;;;;;;;20.75;42.36;101230.41;4146143;28;20076;-65
2022/06/17 02:40:42;;;;;;;4.35;2.17;;;;;;;20.71;42.43;101229.56;4146097;28;20074;-65
2022/06/17 02:42:46;;;;;;;5.55;2.13;;;;;;;20.69;42.75;101238.41;4145780;28;20038;-65
2022/06/17 02:44:54;;;;;;;6.10;2.28;;;;;;;20.67;42.82;101232.28;4144878;28;20133;-67
2022/06/17 02:46:58;;;;;;;7.85;2.55;;;;;;;20.65;43.02;101237.56;4146060;28;20133;-67
2022/06/17 02:49:07;;;;;;;4.45;2.28;;;;;;;20.66;42.77;101233.13;4146047;28;20058;-67
2022/06/17 02:51:13;;;;;;;6.80;2.00;;;;;;;20.61;43.28;101243.78;4146717;28;20527;-67
2022/06/17 02:53:16;;;;;;;6.07;2.20;;;;;;;20.59;43.42;101242.94;4144214;28;20037;-67
2022/06/17 02:55:27;;;;;;;4.15;1.75;;;;;;;20.51;43.67;101252.75;4143393;28;20034;-67
2022/06/17 02:57:31;;;;;;;5.40;1.83;;;;;;;20.46;43.71;101244.00;4145921;28;20046;-67
2022/06/17 02:59:41;;;;;;;5.88;2.10;;;;;;;20.49;43.93;101250.13;4145571;28;20045;-67
2022/06/17 03:01:44;;;;;;;4.75;1.80;;;;;;;20.49;44.19;101247.47;4146268;28;20061;-67
2022/06/17 03:04:13;;;;;;;6.32;1.70;;;;;;;20.52;44.97;101265.94;4146267;28;20046;-67
2022/06/17 03:06:19;;;;;;;6.53;1.90;;;;;;;20.51;45.38;101264.16;4138582;28;20041;-67
2022/06/17 03:08:25;;;;;;;6.55;1.88;;;;;;;20.53;44.51;101264.16;4145386;28;20041;-68
2022/06/17 03:10:32;;;;;;;7.10;2.40;;;;;;;20.51;44.15;101258.88;4141978;28;20052;-68
2022/06/17 03:12:35;;;;;;;6.20;2.28;;;;;;;20.49;44.01;101257.19;4128221;28;20078;-67
2022/06/17 03:14:44;;;;;;;5.25;2.45;;;;;;;20.56;43.62;101262.34;4146494;28;20038;-67
2022/06/17 03:16:51;;;;;;;5.97;2.47;;;;;;;20.49;44.02;101270.38;4158914;28;20041;-67
2022/06/17 03:18:55;;;;;;;5.10;1.92;;;;;;;20.44;44.44;101273.06;4144771;28;20041;-67
2022/06/17 03:20:59;;;;;;;5.22;1.92;;;;;;;20.42;44.98;101282.78;4146545;28;20096;-67
2022/06/17 03:23:08;;;;;;;9.73;2.15;;;;;;;20.39;45.35;101278.41;4144992;28;20230;-67
2022/06/17 03:25:20;;;;;;;6.63;1.95;;;;;;;20.33;45.70;101280.28;4160005;28;20060;-67
2022/06/17 03:27:30;;;;;;;5.50;2.08;;;;;;;20.29;45.88;101283.84;4146788;28;20042;-67
2022/06/17 03:29:35;;;;;;;3.53;1.88;;;;;;;20.17;46.38;101277.84;4129360;28;20525;-67
2022/06/17 03:31:46;;;;;;;5.97;2.10;;;;;;;20.14;46.49;101279.66;4162436;28;20664;-67
2022/06/17 03:33:55;;;;;;;4.90;2.33;;;;;;;20.09;46.33;101274.41;4148599;28;20041;-67
2022/06/17 03:36:05;;;;;;;3.38;1.60;;;;;;;20.06;46.26;101274.44;4148599;28;20408;-67
2022/06/17 03:38:20;;;;;;;5.63;2.20;;;;;;;20.11;46.07;101277.06;4145585;28;20627;-66
2022/06/17 03:40:30;;;;;;;3.67;2.10;;;;;;;20.08;45.91;101280.59;4140997;28;20125;-66
2022/06/17 03:42:36;;;;;;;4.65;1.95;;;;;;;20.10;45.79;101285.84;4142251;28;20040;-66
2022/06/17 03:44:43;;;;;;;6.32;2.42;;;;;;;20.15;45.60;101277.00;4149500;28;20041;-64
2022/06/17 03:46:52;;;;;;;5.22;1.95;;;;;;;20.13;45.71;101283.19;4144427;28;20041;-66
2022/06/17 03:49:02;;;;;;;8.70;2.42;;;;;;;20.16;45.68;101283.13;4143060;28;20056;-66
2022/06/17 03:51:06;;;;;;;4.28;1.80;;;;;;;20.09;45.87;101284.97;4146345;28;20440;-66
2022/06/17 03:53:27;;;;;;;7.03;1.70;;;;;;;20.10;45.85;101296.41;4143688;28;20046;-66
2022/06/17 03:55:32;;;;;;;9.48;2.75;;;;;;;20.16;45.47;101288.41;4139474;28;20504;-66
2022/06/17 03:57:37;;;;;;;4.57;1.92;;;;;;;20.15;45.20;101289.28;4140014;28;20049;-67
2022/06/17 03:59:44;;;;;;;5.63;2.55;;;;;;;20.19;45.20;101301.56;4145613;28;20540;-66
2022/06/17 04:01:54;;;;;;;7.80;2.53;;;;;;;20.19;44.57;101294.53;4144152;28;20045;-66
2022/06/17 04:03:59;;;;;;;6.90;2.00;;;;;;;20.15;44.81;101302.50;4142170;28;20088;-66
2022/06/17 04:06:15;;;;;;;6.35;2.00;;;;;;;20.34;47.40;101309.31;4143850;28;20505;-69
2022/06/17 04:08:23;;;;;;;6.80;2.17;;;;;;;20.64;45.88;101312.44;4156193;28;20662;-69
2022/06/17 04:10:30;;;;;;;3.30;1.85;;;;;;;20.93;45.55;101306.75;4129896;28;20050;-69
2022/06/17 04:12:35;;;;;;;7.20;2.47;;;;;;;21.08;43.48;101308.31;4143930;28;20069;-69
2022/06/17 04:14:54;;;;;;;9.93;3.03;;;;;;;20.91;43.57;101299.75;4145813;28;20112;-69
2022/06/17 04:17:05;;;;;;;7.35;2.17;;;;;;;20.90;44.42;101301.50;4129633;28;20058;-70
2022/06/17 04:19:17;;;;;;;5.50;2.20;;;;;;;21.03;44.65;101307.47;4144818;28;20042;-70
2022/06/17 04:21:29;;;;;;;3.97;1.75;;;;;;;21.21;44.99;101303.66;4139667;28;20129;-70
2022/06/17 04:23:34;;;;;;;4.18;2.00;;;;;;;21.35;45.47;101310.50;4143964;28;20041;-70
2022/06/17 04:25:51;;;;;;;4.88;1.88;;;;;;;21.42;45.67;101320.06;4157896;28;20046;-70
2022/06/17 04:27:58;;;;;;;7.38;2.00;;;;;;;21.49;45.28;101319.06;4145291;28;20058;-71
2022/06/17 04:30:06;;;;;;;8.85;2.05;;;;;;;21.51;45.15;101324.34;4142762;28;20038;-70
2022/06/17 04:32:17;;;;;;;4.18;1.70;;;;;;;21.52;44.92;101319.03;4132016;28;20038;-70
2022/06/17 04:34:22;;;;;;;5.80;2.22;;;;;;;21.56;44.83;101325.16;4159558;28;20038;-70
2022/06/17 04:36:31;;;;;;;4.22;2.15;;;;;;;21.43;43.97;101324.47;4158384;28;20069;-71
2022/06/17 04:38:47;;;;;;;11.23;2.13;;;;;;;21.30;43.93;101336.16;4148986;28;20496;-71
2022/06/17 04:41:13;;;;;;;7.72;2.60;;;;;;;21.16;44.05;101331.97;4149520;28;20042;-71
2022/06/17 04:43:39;;;;;;;10.77;2.63;;;;;;;21.08;44.43;101336.50;4128916;28;20405;-70
2022/06/17 04:45:54;;;;;;;7.78;3.65;;;;;;;21.10;43.99;101335.56;4159705;28;20047;-71
2022/06/17 04:47:59;;;;;;;10.43;3.67;;;;;;;21.00;43.99;101338.41;4149128;28;20034;-70
2022/06/17 04:50:10;;;;;;;9.52;2.88;;;;;;;20.84;44.49;101335.97;4144237;28;20160;-70
2022/06/17 04:52:24;;;;;;;7.13;2.88;;;;;;;20.82;44.82;101344.81;4147922;28;20117;-71
2022/06/17 04:54:31;;;;;;;12.40;3.35;;;;;;;20.87;44.48;101338.56;4158383;28;20498;-70
2022/06/17 04:56:55;;;;;;;9.82;3.15;;;;;;;20.88;45.00;101340.31;4148093;28;20044;-70
2022/06/17 04:59:17;;;;;;;6.32;2.80;;;;;;;20.88;44.60;101347.34;4149198;28;20054;-70
2022/06/17 05:01:22;;;;;;;12.75;3.15;;;;;;;20.81;45.23;101341.31;4148444;28;20038;-70
2022/06/17 05:03:35;;;;;;;12.30;3.10;;;;;;;20.78;45.05;101351.91;4123316;28;20441;-71
2022/06/17 05:06:17;;;;;;;12.57;3.00;;;;;;;20.77;44.92;101355.44;4125032;28;20626;-70
2022/06/17 05:08:24;;;;;;;9.18;3.13;;;;;;;20.82;45.25;101352.72;4161137;28;20037;-70
2022/06/17 05:10:33;;;;;;;6.50;2.75;;;;;;;20.75;45.38;101355.47;4141097;28;20089;-71
2022/06/17 05:12:38;;;;;;;6.57;3.05;;;;;;;20.88;45.52;101358.81;4147983;28;20570;-70
2022/06/17 05:14:49;;;;;;;11.43;3.85;;;;;;;21.06;44.58;101357.66;4147598;28;20053;-70
2022/06/17 05:16:52;;;;;;;18.65;3.97;;;;;;;21.07;44.39;101358.53;4146297;28;20421;-70
2022/06/17 05:19:03;;;;;;;7.78;2.90;;;;;;;20.96;44.77;101360.47;4138852;28;20060;-70
2022/06/17 05:21:16;;;;;;;7.95;3.20;;;;;;;21.02;44.37;101360.38;4166639;28;20029;-70
2022/06/17 05:23:19;;;;;;;5.00;2.50;;;;;;;20.98;44.14;101363.97;4146906;28;20085;-70
2022/06/17 05:25:25;;;;;;;;;;;;;;;20.98;43.75;101359.53;4128570;28;20141;-70
2022/06/17 05:27:28;;;;;;;7.53;2.80;;;;;;;20.95;43.90;101369.31;4158773;28;19947;-70
2022/06/17 05:29:32;;;;;;;4.43;2.17;;;;;;;20.86;44.05;101365.88;4149768;28;20137;-70
2022/06/17 05:31:40;;;;;;;7.82;2.83;;;;;;;20.89;44.33;101359.69;4155335;28;20042;-70
2022/06/17 05:33:43;;;;;;;6.47;2.80;;;;;;;20.98;43.52;101363.97;4157485;28;20042;-70
2022/06/17 05:35:49;;;;;;;9.27;2.55;;;;;;;21.01;43.51;101353.34;4146022;28;20587;-70
2022/06/17 05:37:53;;;;;;;5.75;2.58;;;;;;;20.99;43.47;101345.44;4129965;28;20497;-70
2022/06/17 05:39:56;;;;;;;8.20;2.53;;;;;;;20.97;43.70;101338.41;4143000;28;20057;-70
2022/06/17 05:41:59;;;;;;;8.40;2.22;;;;;;;20.98;43.94;101350.75;4161410;28;20041;-71
2022/06/17 05:44:02;;;;;;;3.72;2.10;;;;;;;21.02;43.84;101347.16;4142140;28;20479;-70
2022/06/17 05:46:28;;;;;;;10.07;2.60;;;;;;;21.10;43.65;101351.44;4143110;28;20108;-70
2022/06/17 05:48:48;;;;;;;4.30;1.83;;;;;;;21.23;43.61;101360.06;4130416;28;20438;-66
2022/06/17 05:51:15;;;;;;;7.65;1.88;;;;;;;21.43;43.76;101357.06;4144256;28;20093;-67
2022/06/17 05:53:32;;;;;;;5.60;1.70;;;;;;;21.63;43.64;101360.34;4124627;28;20038;-68
2022/06/17 05:55:52;;;;;;;5.88;2.20;;;;;;;21.81;42.90;101361.78;4145831;28;20046;-68
2022/06/17 05:57:54;;;;;;;8.18;2.70;;;;;;;21.93;41.86;101362.44;4132674;28;20121;-69
2022/06/17 05:59:57;;;;;;;7.45;2.00;;;;;;;21.94;42.20;101364.16;4147701;28;20049;-67
2022/06/17 06:02:14;;;;;;;3.45;1.70;;;;;;;22.00;42.76;101362.31;4147183;28;20056;-67
2022/06/17 06:04:31;;;;;;;6.10;2.00;;;;;;;22.08;42.77;101366.56;4143299;28;20548;-68
2022/06/17 06:06:36;;;;;;;4.00;1.83;;;;;;;22.16;42.88;101365.53;4146349;28;20092;-70
2022/06/17 06:08:41;;;;;;;9.25;2.53;;;;;;;22.22;42.15;101368.91;4141754;28;20049;-68
2022/06/17 06:10:44;;;;;;;10.52;2.55;;;;;;;22.25;42.24;101366.25;4147984;28;20038;-68
2022/06/17 06:13:03;;;;;;;16.90;7.57;;;;;;;22.28;42.25;101374.13;4139390;28;20104;-68
2022/06/17 06:15:11;;;;;;;6.28;2.70;;;;;;;22.32;42.91;101369.66;4157456;28;20065;-69
2022/06/17 06:17:22;;;;;;;6.18;2.10;;;;;;;22.44;42.78;101368.53;4147483;28;20133;-68
2022/06/17 06:19:25;;;;;;;5.07;2.20;;;;;;;22.51;40.14;101370.16;4142045;28;20525;-68
2022/06/17 06:21:28;;;;;;;3.50;1.80;;;;;;;22.43;40.07;101367.66;4132217;28;20042;-69
2022/06/17 06:23:33;;;;;;;8.43;2.55;;;;;;;22.45;39.80;101371.16;4147822;28;20550;-68
2022/06/17 06:25:38;;;;;;;4.95;1.70;;;;;;;22.34;40.82;101362.56;4146958;28;20034;-68
2022/06/17 06:27:42;;;;;;;3.70;1.45;;;;;;;22.25;40.69;101366.25;4149328;28;20049;-68
2022/06/17 06:29:46;;;;;;;3.70;1.70;;;;;;;22.39;41.09;101370.41;4130252;28;20542;-68
2022/06/17 06:31:49;;;;;;;3.90;1.75;;;;;;;22.43;41.17;101377.41;4145871;28;20057;-68
2022/06/17 06:34:06;;;;;;;4.90;1.58;;;;;;;22.35;41.04;101381.97;4148530;28;20048;-68
2022/06/17 06:36:18;;;;;;;2.75;1.30;;;;;;;22.31;41.03;101378.47;4131886;28;20133;-68
2022/06/17 06:38:21;;;;;;;2.72;1.50;;;;;;;22.43;41.59;101377.41;4132536;28;20050;-68
2022/06/17 06:40:28;;;;;;;3.72;1.33;;;;;;;22.45;40.95;101379.09;4143993;28;20479;-69
2022/06/17 06:42:31;;;;;;;3.08;1.33;;;;;;;22.45;41.53;101388.84;4145629;28;20048;-69
2022/06/17 06:44:54;;;;;;;3.33;1.45;;;;;;;22.48;41.36;101391.41;4144427;28;20048;-69
2022/06/17 06:47:04;;;;;;;4.53;1.73;;;;;;;22.48;39.80;101386.13;4140073;28;20050;-68
2022/06/17 06:49:27;;;;;;;3.67;1.63;;;;;;;22.42;40.74;101391.53;4148822;28;20048;-69
2022/06/17 06:51:31;;;;;;;;;;;;;;;22.39;40.92;101388.97;4145677;28;20510;-69
2022/06/17 06:53:35;;;;;;;2.72;1.40;;;;;;;22.54;40.99;101391.28;4162568;28;20462;-68
2022/06/17 06:55:39;;;;;;;1.80;1.30;;;;;;;22.71;40.63;101376.81;4128323;28;20049;-69
2022/06/17 06:57:45;;;;;;;3.05;1.60;;;;;;;22.88;40.03;101374.66;4159176;28;20124;-69
2022/06/17 06:59:49;;;;;;;3.85;1.90;;;;;;;22.94;38.97;101370.97;4142181;28;20038;-68
2022/06/17 07:01:53;;;;;;;4.68;1.67;;;;;;;22.95;39.47;101375.38;4150251;28;20041;-68
2022/06/17 07:03:57;;;;;;;3.53;1.80;;;;;;;23.04;38.58;101379.59;4156233;28;20029;-68
2022/06/17 07:06:02;;;;;;;2.07;1.33;;;;;;;22.93;40.00;101383.38;4146613;28;20130;-68
2022/06/17 07:08:06;;;;;;;4.15;1.50;;;;;;;22.90;40.21;101377.28;4155168;28;20304;-68
2022/06/17 07:10:12;;;;;;;3.50;1.23;;;;;;;22.93;40.51;101380.72;4150085;28;20042;-68
2022/06/17 07:12:16;;;;;;;4.72;1.60;;;;;;;22.91;41.20;101381.66;4149887;28;20049;-68
2022/06/17 07:14:20;;;;;;;4.40;1.40;;;;;;;22.87;40.03;101388.81;4135976;28;20093;-69
2022/06/17 07:16:22;;;;;;;4.15;1.40;;;;;;;22.91;39.78;101387.84;4146399;28;20554;-68
2022/06/17 07:18:29;;;;;;;5.00;1.25;;;;;;;22.97;40.06;101386.84;4145194;28;20265;-68
2022/06/17 07:20:38;;;;;;;2.72;1.65;;;;;;;23.11;38.33;101392.72;4143186;28;20121;-68
2022/06/17 07:22:41;;;;;;;2.80;1.40;;;;;;;23.07;39.75;101391.03;4128043;28;20525;-68
2022/06/17 07:24:44;;;;;;;2.13;1.33;;;;;;;23.05;40.49;101387.53;4142689;28;20041;-68
2022/06/17 07:26:47;;;;;;;3.45;1.23;;;;;;;23.11;40.43;101390.06;4140419;28;20030;-69
2022/06/17 07:28:53;;;;;;;3.40;1.40;;;;;;;23.14;40.39;101389.13;4154392;28;20037;-68
2022/06/17 07:30:57;;;;;;;6.95;2.03;;;;;;;23.32;37.46;101386.03;4146815;28;20042;-68
2022/06/17 07:33:00;;;;;;;2.10;1.13;;;;;;;23.26;39.25;101388.84;4144273;28;20561;-68
2022/06/17 07:35:04;;;;;;;3.47;1.50;;;;;;;23.25;39.52;101389.75;4138285;28;20041;-68
2022/06/17 07:41:52;;;;;;;4.72;1.27;;;;;;;23.49;36.84;101382.09;4137943;28;20034;-69
2022/06/17 07:43:56;;;;;;;3.72;1.50;;;;;;;23.62;34.99;101386.19;4144089;28;20048;-69
2022/06/17 07:46:00;;;;;;;3.72;1.20;;;;;;;23.54;35.02;101382.88;4147492;28;20033;-68
2022/06/17 07:48:04;;;;;;;6.80;1.60;;;;;;;23.31;35.88;101375.47;4146479;28;20125;-69
2022/06/17 07:50:11;;;;;;;2.70;1.33;;;;;;;23.40;35.88;101375.22;4144103;28;20069;-69
2022/06/17 07:52:14;;;;;;;2.75;1.55;;;;;;;23.55;34.75;101367.81;4150611;28;20129;-68
2022/06/17 07:54:17;;;;;;;4.65;1.75;;;;;;;23.50;35.14;101373.22;4153798;28;20034;-69
2022/06/17 07:56:27;;;;;;;3.35;1.25;;;;;;;23.50;35.27;101367.94;4147029;28;20485;-68
2022/06/17 07:58:30;;;;;;;4.88;1.20;;;;;;;23.47;35.83;101370.66;4161265;28;20516;-70
2022/06/17 08:00:38;;;;;;;3.90;1.83;;;;;;;23.66;35.49;101369.28;4144626;28;20053;-71
2022/06/17 08:02:47;;;;;;;3.25;1.33;;;;;;;23.58;36.54;101359.75;4146342;28;20065;-71
2022/06/17 08:04:50;;;;;;;9.77;2.10;;;;;;;23.65;36.22;101356.03;4147248;28;20505;-71
2022/06/17 08:06:53;;;;;;;4.15;1.73;;;;;;;23.80;35.26;101353.00;4150658;28;20037;-71
2022/06/17 08:09:03;;;;;;;3.72;1.98;;;;;;;23.63;36.21;101358.72;4148171;28;20038;-71
2022/06/17 08:11:06;;;;;;;1.92;1.05;;;;;;;23.64;36.97;101356.94;4149701;28;20042;-70
2022/06/17 08:13:09;;;;;;;5.47;1.85;;;;;;;23.90;36.12;101348.31;4145026;28;20038;-71
2022/06/17 08:15:13;;;;;;;5.07;1.60;;;;;;;23.92;36.26;101346.50;4145064;28;20045;-70
2022/06/17 08:17:18;;;;;;;5.28;2.05;;;;;;;23.96;36.02;101350.81;4147253;28;20288;-70
2022/06/17 08:19:21;;;;;;;4.38;1.60;;;;;;;23.90;36.58;101348.31;4167978;28;20115;-70
2022/06/17 08:21:24;;;;;;;7.10;2.10;;;;;;;24.03;35.84;101355.06;4136067;28;20493;-71
2022/06/17 08:23:47;;;;;;;6.00;1.90;;;;;;;24.13;35.30;101347.69;4147280;28;20133;-70
2022/06/17 08:25:50;;;;;;;7.53;1.98;;;;;;;24.32;34.53;101347.16;4163598;28;20061;-72
2022/06/17 08:27:55;;;;;;;8.80;1.90;;;;;;;24.39;34.13;101357.56;4151097;28;20048;-71
2022/06/17 08:29:58;;;;;;;5.97;1.92;;;;;;;24.27;34.40;101363.25;4170062;28;20072;-70
2022/06/17 08:34:29;;;;;;;5.82;1.85;;;;;;;24.38;33.98;101358.47;4151634;28;20125;-70
2022/06/17 08:36:32;;;;;;;4.80;2.08;;;;;;;24.51;33.33;101352.81;4138271;28;20048;-70
2022/06/17 08:38:38;;;;;;;5.47;1.83;;;;;;;24.51;33.34;101358.97;4154712;28;20532;-70
2022/06/17 08:40:55;;;;;;;2.83;1.50;;;;;;;24.33;34.70;101349.78;4148965;28;20053;-70
2022/06/17 08:43:23;;;;;;;4.95;1.55;;;;;;;24.45;33.70;101348.53;4154910;28;20037;-70
2022/06/17 08:45:36;;;;;;;7.72;2.83;;;;;;;24.48;33.97;101342.28;4153783;28;20037;-70
2022/06/17 08:47:53;;;;;;;4.57;2.03;;;;;;;24.57;33.60;101342.88;4141468;28;20492;-70
2022/06/17 08:50:34;;;;;;;4.55;1.80;;;;;;;24.44;33.92;101341.47;4150591;28;20120;-70
2022/06/17 08:53:09;;;;;;;6.60;1.77;;;;;;;24.62;32.56;101329.47;4142655;28;20040;-70
2022/06/17 08:55:20;;;;;;;3.55;1.88;;;;;;;24.56;34.00;101329.59;4146879;28;20559;-69
2022/06/17 08:57:30;;;;;;;10.45;2.28;;;;;;;24.82;32.87;101335.94;4151015;28;20041;-69
2022/06/17 09:00:00;;;;;;;4.07;1.75;;;;;;;24.85;32.68;101341.16;4140599;28;20037;-69
2022/06/17 09:02:18;;;;;;;3.85;1.48;;;;;;;24.87;34.68;101337.53;4136336;28;20089;-69
2022/06/17 09:04:41;;;;;;;2.78;1.70;;;;;;;25.20;33.46;101344.47;4156934;28;20041;-69
2022/06/17 09:07:06;;;;;;;3.08;1.33;;;;;;;25.08;35.97;101341.28;4137930;28;20085;-68
2022/06/17 09:09:30;;;;;;;5.47;2.00;;;;;;;25.22;32.91;101340.00;4160007;28;20396;-68
2022/06/17 09:11:41;;;;;;;2.90;1.30;;;;;;;25.20;33.04;101331.19;4140636;28;20081;-69
2022/06/17 09:13:59;;;;;;;3.35;1.02;;;;;;;25.36;31.86;101331.56;4150065;28;20030;-68
2022/06/17 09:16:11;;;;;;;2.67;0.98;;;;;;;25.43;32.09;101327.78;4150904;28;20037;-68
2022/06/17 09:18:22;;;;;;;3.38;1.30;;;;;;;25.50;33.54;101334.63;4155454;28;20104;-68
2022/06/17 09:20:31;;;;;;;3.75;1.40;;;;;;;25.54;34.61;101340.72;4142858;28;20111;-68
2022/06/17 09:22:40;;;;;;;2.97;1.35;;;;;;;25.70;33.09;101344.59;4153825;28;20045;-68
2022/06/17 09:24:45;;;;;;;5.55;1.70;;;;;;;25.70;33.28;101344.59;4148562;28;20150;-68
2022/06/17 09:26:53;;;;;;;4.35;1.15;;;;;;;25.58;33.19;101342.34;4144702;28;20033;-68
2022/06/17 09:29:03;;;;;;;3.50;1.50;;;;;;;25.44;33.51;101349.03;4147632;28;20072;-68
2022/06/17 09:31:12;;;;;;;3.45;1.25;;;;;;;25.40;33.46;101341.19;4162356;28;20041;-68
2022/06/17 09:33:22;;;;;;;3.20;1.33;;;;;;;25.25;33.22;101342.56;4150287;28;20121;-68
2022/06/17 09:35:30;;;;;;;4.05;1.60;;;;;;;25.22;34.00;101351.50;4155267;28;20329;-68
2022/06/17 09:37:41;;;;;;;3.03;1.35;;;;;;;25.47;32.59;101349.88;4143783;28;20493;-68
2022/06/17 09:39:49;;;;;;;9.68;1.65;;;;;;;25.70;31.16;101351.72;4147673;28;20033;-68
2022/06/17 09:41:56;;;;;;;6.32;1.58;;;;;;;25.79;30.64;101349.59;4150455;28;20045;-68
2022/06/17 09:44:07;;;;;;;2.97;1.42;;;;;;;25.99;28.31;101350.66;4151219;28;20257;-68
2022/06/17 09:46:19;;;;;;;2.95;1.40;;;;;;;25.88;29.09;101351.06;4150212;28;20036;-68
2022/06/17 09:48:27;;;;;;;3.03;1.05;;;;;;;25.87;28.95;101343.13;4153907;28;20144;-68
2022/06/17 09:50:36;;;;;;;6.82;1.38;;;;;;;25.85;29.59;101345.00;4148511;28;20381;-68
2022/06/17 09:52:49;;;;;;;1.45;1.00;;;;;;;25.76;30.77;101347.03;4130944;28;20042;-68
2022/06/17 09:54:57;;;;;;;2.50;1.10;;;;;;;25.82;31.13;101340.63;4153844;28;20382;-68
2022/06/17 09:57:07;;;;;;;3.53;1.02;;;;;;;26.02;31.07;101342.63;4161373;28;20140;-68
2022/06/17 09:59:17;;;;;;;2.45;1.10;;;;;;;26.07;30.31;101335.31;4143323;28;20039;-68
2022/06/17 10:01:20;;;;;;;3.83;1.08;;;;;;;26.12;29.50;101341.38;4151950;28;20141;-68
2022/06/17 10:03:25;;;;;;;2.17;0.90;;;;;;;26.21;29.45;101341.94;4145188;28;20044;-68
2022/06/17 10:05:37;;;;;;;5.30;1.42;;;;;;;26.33;29.17;101340.59;4150911;28;20409;-68
2022/06/17 10:07:48;;;;;;;3.60;1.10;;;;;;;26.28;29.27;101336.34;4146160;28;20468;-68
2022/06/17 10:10:03;;;;;;;2.45;1.25;;;;;;;26.32;28.92;101330.88;4165437;28;20541;-68